Time;durP1;ratioP1;P1;durP2;ratioP2;P2;SDS_P1;SDS_P2;PMS_P1;PMS_P2;Temp;Humidity;BMP_temperature;BMP_pressure;BME280_temperature;BME280_humidity;BME280_pressure;Samples;Min_cycle;Max_cycle;Signal;HPM_P1;HPM_P2
2021/12/05 00:23:39;;;;;;;3.63;1.80;;;;;;;-2.79;99.04;100772.13;4802710;29;20039;-79
2021/12/05 00:26:07;;;;;;;3.47;1.95;;;;;;;-2.81;99.05;100770.56;4809128;29;20426;-79
2021/12/05 00:59:59;;;;;;;2.78;1.73;;;;;;;-3.12;97.52;100823.66;4801735;29;19913;-79
2021/12/05 01:15:16;;;;;;;5.03;1.80;;;;;;;-3.15;96.95;100849.38;4792510;29;20074;-78
2021/12/05 01:18:00;;;;;;;3.88;1.90;;;;;;;-3.10;97.11;100855.16;4798685;29;20466;-79
2021/12/05 01:20:29;;;;;;;3.17;1.77;;;;;;;-3.15;96.38;100850.19;4808991;29;20035;-78
2021/12/05 01:23:03;;;;;;;2.42;1.33;;;;;;;-3.15;96.39;100859.91;4807864;29;20039;-79
2021/12/05 01:25:52;;;;;;;2.85;1.88;;;;;;;-3.17;96.15;100853.91;4812023;29;20031;-79
2021/12/05 01:28:38;;;;;;;2.35;1.58;;;;;;;-3.20;95.71;100859.41;4807080;29;20023;-79
2021/12/05 01:38:52;;;;;;;2.50;1.58;;;;;;;-3.21;95.54;100878.75;4808631;29;20077;-79
2021/12/05 01:57:56;;;;;;;2.63;1.58;;;;;;;-3.41;94.46;100895.94;4811224;29;19986;-79
2021/12/05 02:08:58;;;;;;;3.08;2.10;;;;;;;-3.50;94.83;100909.75;4805580;29;20083;-78
2021/12/05 02:30:59;;;;;;;3.28;2.00;;;;;;;-3.75;94.71;100936.88;4807740;29;20097;-79
2021/12/05 02:36:24;;;;;;;3.40;2.10;;;;;;;-3.80;94.53;100942.44;4808187;29;20041;-78
2021/12/05 02:43:50;;;;;;;3.58;2.22;;;;;;;-4.05;95.13;100935.34;4811270;29;20056;-78
2021/12/05 02:46:19;;;;;;;3.92;2.20;;;;;;;-3.91;95.10;100948.41;4816523;29;20088;-78
2021/12/05 02:48:45;;;;;;;3.03;2.30;;;;;;;-4.29;95.20;100907.13;4811359;29;20437;-78
2021/12/05 02:51:17;;;;;;;4.78;2.38;;;;;;;-4.08;95.28;100946.91;4811105;29;20038;-78
2021/12/05 02:53:48;;;;;;;5.22;2.63;;;;;;;-4.07;95.51;100951.25;4813218;29;20027;-78
2021/12/05 02:56:15;;;;;;;3.72;2.10;;;;;;;-4.15;95.74;100948.25;4808341;29;20420;-79
2021/12/05 02:58:54;;;;;;;3.72;2.60;;;;;;;-4.18;96.06;100950.25;4790953;29;20034;-79
2021/12/05 03:01:28;;;;;;;4.47;2.35;;;;;;;-4.30;96.16;100960.63;4793911;29;20051;-78
2021/12/05 03:03:55;;;;;;;3.70;2.47;;;;;;;-4.28;96.51;100963.97;4805941;29;20031;-78
2021/12/05 03:06:26;;;;;;;4.57;2.90;;;;;;;-4.37;96.62;100967.22;4807235;29;20045;-78
2021/12/05 03:08:56;;;;;;;3.72;2.10;;;;;;;-4.47;96.75;100968.72;4806147;29;20049;-78
2021/12/05 03:11:23;;;;;;;4.85;2.58;;;;;;;-4.43;96.95;100975.50;4807167;29;20035;-78
2021/12/05 03:13:50;;;;;;;4.38;2.60;;;;;;;-4.44;96.96;100978.19;4806825;29;20047;-79
2021/12/05 03:16:18;;;;;;;3.78;2.30;;;;;;;-4.50;96.90;100977.66;4808488;29;20035;-78
2021/12/05 03:18:44;;;;;;;4.18;2.50;;;;;;;-4.50;97.40;101001.31;4806368;29;20489;-78
2021/12/05 03:21:11;;;;;;;4.53;2.60;;;;;;;-4.51;97.33;100998.75;4810808;29;20054;-78
2021/12/05 03:23:39;;;;;;;4.20;2.30;;;;;;;-4.52;97.26;101002.34;4810270;29;20046;-78
2021/12/05 03:26:06;;;;;;;3.63;2.70;;;;;;;-4.51;97.50;101009.25;4806508;29;20382;-78
2021/12/05 03:28:32;;;;;;;4.78;2.70;;;;;;;-4.54;97.43;101012.09;4805479;29;20063;-78
2021/12/05 03:30:58;;;;;;;5.10;2.70;;;;;;;-4.54;97.45;101009.47;4807166;29;20438;-78
2021/12/05 03:33:24;;;;;;;4.47;2.80;;;;;;;-4.61;97.51;101024.75;4805582;29;20027;-78
2021/12/05 03:35:49;;;;;;;4.20;2.83;;;;;;;-4.66;97.52;101021.59;4805618;29;20066;-78
2021/12/05 03:38:15;;;;;;;5.85;3.17;;;;;;;-4.64;97.33;101024.09;4804955;29;20465;-78
2021/12/05 03:40:41;;;;;;;3.58;2.53;;;;;;;-4.82;97.91;101005.09;4805987;29;20550;-79
2021/12/05 03:43:13;;;;;;;4.95;2.75;;;;;;;-4.72;97.91;101028.06;4823388;29;20034;-78
2021/12/05 03:45:42;;;;;;;4.82;3.00;;;;;;;-4.72;97.84;101043.81;4806916;29;20031;-78
2021/12/05 03:48:08;;;;;;;4.40;2.55;;;;;;;-4.77;97.83;101032.78;4798324;29;20035;-78
2021/12/05 03:50:35;;;;;;;4.25;2.55;;;;;;;-4.79;97.99;101039.88;4791066;29;20037;-79
2021/12/05 03:53:02;;;;;;;4.00;2.17;;;;;;;-4.85;98.11;101039.41;4799449;29;20030;-78
2021/12/05 03:55:28;;;;;;;5.05;2.92;;;;;;;-4.85;98.34;101061.25;4810853;29;20039;-78
2021/12/05 03:57:54;;;;;;;4.82;3.03;;;;;;;-4.85;98.24;101058.63;4809031;29;20339;-78
2021/12/05 04:00:32;;;;;;;7.03;3.30;;;;;;;-4.98;98.41;101047.19;4810813;29;20031;-78
2021/12/05 04:03:02;;;;;;;4.32;2.88;;;;;;;-4.96;98.75;101056.66;4809751;29;20122;-79
2021/12/05 04:05:31;;;;;;;6.57;3.20;;;;;;;-4.86;98.85;101075.31;4811570;29;20140;-79
2021/12/05 04:07:57;;;;;;;6.25;3.10;;;;;;;-4.96;98.55;101067.16;4808186;29;20035;-79
2021/12/05 04:10:26;;;;;;;4.97;2.67;;;;;;;-4.92;98.54;101083.56;4808907;29;20031;-78
2021/12/05 04:12:52;;;;;;;4.60;2.67;;;;;;;-5.00;98.95;101086.66;4793586;29;20030;-78
2021/12/05 04:15:18;;;;;;;3.95;2.85;;;;;;;-5.01;99.18;101099.84;4809261;29;20027;-79
2021/12/05 04:17:45;;;;;;;4.40;2.90;;;;;;;-5.05;99.08;101093.13;4791636;29;20066;-79
2021/12/05 04:20:14;;;;;;;5.40;3.15;;;;;;;-5.07;99.38;101098.44;4808855;29;20034;-79
2021/12/05 04:22:40;;;;;;;4.03;2.72;;;;;;;-5.00;98.97;101107.66;4807307;29;20074;-79
2021/12/05 04:25:10;;;;;;;5.40;2.60;;;;;;;-5.06;99.28;101109.81;4811585;29;20446;-79
2021/12/05 04:27:37;;;;;;;6.00;2.90;;;;;;;-5.04;99.29;101116.63;4815344;29;20412;-79
2021/12/05 04:30:06;;;;;;;4.63;2.75;;;;;;;-5.04;98.91;101113.16;4807133;29;20479;-79
2021/12/05 04:32:37;;;;;;;4.72;2.78;;;;;;;-5.13;99.09;101122.44;4809486;29;20107;-78
2021/12/05 04:35:03;;;;;;;4.97;2.88;;;;;;;-5.10;99.26;101132.75;4806938;29;20033;-79
2021/12/05 04:37:29;;;;;;;4.93;2.80;;;;;;;-5.12;99.04;101124.13;4808359;29;20441;-79
2021/12/05 04:39:54;;;;;;;6.25;2.95;;;;;;;-5.16;99.08;101121.78;4808682;29;20030;-79
2021/12/05 04:42:20;;;;;;;4.40;2.45;;;;;;;-5.72;99.28;101043.69;4785158;29;20036;-79
2021/12/05 04:44:46;;;;;;;4.68;2.75;;;;;;;-5.22;99.42;101130.84;4808627;29;20358;-79
2021/12/05 04:47:11;;;;;;;4.25;2.85;;;;;;;-5.27;99.40;101115.34;4808042;29;20167;-78
2021/12/05 04:49:39;;;;;;;4.78;2.78;;;;;;;-5.15;99.52;101133.94;4812163;29;20035;-79
2021/12/05 04:52:06;;;;;;;3.53;2.50;;;;;;;-5.17;99.51;101130.56;4812458;29;20035;-79
2021/12/05 04:54:32;;;;;;;6.45;2.75;;;;;;;-5.21;99.60;101127.28;4805576;29;20050;-79
2021/12/05 04:56:59;;;;;;;4.47;2.72;;;;;;;-5.26;99.70;101124.94;4808198;29;20030;-78
2021/12/05 04:59:27;;;;;;;4.15;2.88;;;;;;;-5.26;99.94;101130.19;4807360;29;20027;-79
2021/12/05 05:01:57;;;;;;;5.60;3.10;;;;;;;-5.23;99.74;101129.16;4807029;29;20474;-78
2021/12/05 05:04:27;;;;;;;4.88;3.05;;;;;;;-5.29;99.77;101113.78;4790998;29;20027;-78
2021/12/05 05:06:59;;;;;;;4.78;2.88;;;;;;;-5.16;99.57;101142.75;4790041;29;20043;-79
2021/12/05 05:09:28;;;;;;;4.90;2.90;;;;;;;-5.22;99.97;101146.59;4807105;29;20118;-78
2021/12/05 05:11:54;;;;;;;4.65;3.05;;;;;;;-5.20;100.00;101156.06;4808152;29;20458;-78
2021/12/05 05:14:19;;;;;;;5.50;2.70;;;;;;;-5.29;99.90;101142.63;4806494;29;20149;-79
2021/12/05 05:16:47;;;;;;;7.25;3.00;;;;;;;-5.26;100.00;101156.41;4808738;29;20078;-79
2021/12/05 05:19:15;;;;;;;4.82;2.83;;;;;;;-5.26;99.65;101159.03;4807207;29;20045;-79
2021/12/05 05:21:56;;;;;;;4.13;2.60;;;;;;;-5.34;99.92;101153.38;4807446;29;20492;-79
2021/12/05 05:50:25;;;;;;;4.35;2.67;;;;;;;-5.45;99.09;101193.31;4789754;29;20031;-79
2021/12/05 05:52:51;;;;;;;5.18;2.75;;;;;;;-5.39;98.92;101202.63;4804710;29;20050;-79
2021/12/05 05:55:16;;;;;;;5.40;3.10;;;;;;;-5.45;98.97;101222.16;4822015;29;20492;-79
2021/12/05 06:00:52;;;;;;;5.38;2.95;;;;;;;-5.39;99.19;101223.63;4805343;29;20429;-77
2021/12/05 06:03:21;;;;;;;4.95;2.97;;;;;;;-5.52;98.90;101214.75;4805904;29;20034;-79
2021/12/05 06:05:53;;;;;;;4.85;2.90;;;;;;;-5.43;98.91;101232.56;4805224;29;20046;-79
2021/12/05 06:08:21;;;;;;;4.00;2.58;;;;;;;-5.50;98.90;101231.22;4807699;29;20027;-79
2021/12/05 06:10:47;;;;;;;4.60;2.70;;;;;;;-5.58;98.65;101220.31;4806318;29;20027;-79
2021/12/05 06:13:14;;;;;;;4.57;2.80;;;;;;;-5.50;98.71;101249.56;4812929;29;20058;-79
2021/12/05 06:15:40;;;;;;;5.32;2.72;;;;;;;-5.47;98.76;101249.41;4808829;29;20458;-79
2021/12/05 06:18:05;;;;;;;4.20;2.50;;;;;;;-5.45;98.62;101258.03;4805910;29;20072;-79
2021/12/05 06:20:31;;;;;;;3.75;2.58;;;;;;;-5.45;98.88;101258.03;4791375;29;20046;-79
2021/12/05 06:22:57;;;;;;;5.32;2.90;;;;;;;-5.39;98.22;101256.88;4820101;29;20054;-79
2021/12/05 06:25:26;;;;;;;4.45;3.00;;;;;;;-5.35;98.65;101253.13;4791533;29;20034;-79
2021/12/05 06:27:59;;;;;;;5.40;2.85;;;;;;;-5.38;98.42;101269.03;4805076;29;20484;-79
2021/12/05 06:39:22;;;;;;;4.53;2.50;;;;;;;-5.44;98.68;101278.91;4787021;30;20464;-78
2021/12/05 06:47:24;;;;;;;5.47;2.80;;;;;;;-5.35;98.42;101309.06;4805409;29;20061;-80
2021/12/05 06:49:50;;;;;;;3.30;2.30;;;;;;;-5.32;98.63;101313.28;4807124;29;20030;-79
2021/12/05 06:52:16;;;;;;;3.78;2.47;;;;;;;-5.32;98.27;101318.53;4804759;29;20038;-79
2021/12/05 06:54:42;;;;;;;4.38;2.17;;;;;;;-5.30;98.41;101324.53;4806553;29;20382;-80
2021/12/05 06:57:09;;;;;;;3.45;2.60;;;;;;;-5.27;98.21;101334.84;4808031;29;20106;-79
2021/12/05 06:59:37;;;;;;;4.22;2.63;;;;;;;-5.25;98.33;101336.47;4809752;29;20050;-79
2021/12/05 07:02:03;;;;;;;3.00;2.25;;;;;;;-5.20;98.36;101336.19;4813912;29;20377;-79
2021/12/05 07:04:48;;;;;;;4.82;2.60;;;;;;;-5.16;98.33;101344.78;4808718;29;20034;-79
2021/12/05 07:07:29;;;;;;;2.97;2.30;;;;;;;-5.28;98.35;101312.19;4808233;29;20042;-80
2021/12/05 07:09:55;;;;;;;3.50;2.50;;;;;;;-5.15;98.39;101341.22;4821765;29;20151;-79
2021/12/05 07:14:50;;;;;;;3.65;2.47;;;;;;;-5.15;98.22;101338.59;4806642;29;20047;-79
2021/12/05 07:20:05;;;;;;;3.42;2.42;;;;;;;-5.00;98.32;101358.72;4815751;29;20034;-79
2021/12/05 07:22:54;;;;;;;4.85;2.58;;;;;;;-5.08;98.16;101361.75;4811047;29;20035;-79
2021/12/05 07:25:30;;;;;;;3.15;2.25;;;;;;;-4.97;98.48;101375.16;4809336;29;20034;-79
2021/12/05 07:44:01;;;;;;;3.47;2.08;;;;;;;-4.59;97.77;101405.44;4803568;29;20110;-79
2021/12/05 07:46:26;;;;;;;3.08;2.13;;;;;;;-4.52;97.83;101401.53;4810699;29;20381;-80
2021/12/05 07:48:53;;;;;;;4.55;2.30;;;;;;;-4.48;97.57;101413.53;4807581;29;20042;-79
2021/12/05 07:54:02;;;;;;;3.80;1.85;;;;;;;-4.42;97.42;101417.59;4810198;29;20037;-79
2021/12/05 07:59:45;;;;;;;2.78;1.90;;;;;;;-4.39;96.79;101438.44;4807787;29;20510;-80
2021/12/05 08:15:29;;;;;;;2.97;2.10;;;;;;;-4.28;96.40;101462.31;4809547;29;20099;-79
2021/12/05 08:17:57;;;;;;;4.00;2.10;;;;;;;-4.48;96.24;101434.56;4808066;29;20041;-78
2021/12/05 08:20:28;;;;;;;2.50;2.00;;;;;;;-4.31;96.38;101468.59;4808849;29;20035;-78
2021/12/05 08:22:54;;;;;;;3.15;1.95;;;;;;;-4.32;96.21;101464.28;4809128;29;20027;-80
2021/12/05 08:25:22;;;;;;;3.22;1.98;;;;;;;-4.31;95.51;101467.75;4810740;29;20031;-79
2021/12/05 08:27:52;;;;;;;3.83;1.90;;;;;;;-4.23;95.71;101494.44;4813242;29;20050;-79
2021/12/05 08:30:28;;;;;;;3.42;1.70;;;;;;;-4.33;95.59;101491.50;4807324;29;20053;-79
2021/12/05 08:33:19;;;;;;;3.28;1.60;;;;;;;-4.23;95.53;101497.06;4791743;30;20366;-80
2021/12/05 08:36:19;;;;;;;2.05;1.45;;;;;;;-4.39;95.33;101483.94;4816493;29;20117;-79
2021/12/05 08:44:27;;;;;;;2.80;1.90;;;;;;;-4.27;94.92;101501.66;4805733;29;20039;-79
2021/12/05 09:22:35;;;;;;;1.52;1.15;;;;;;;-4.08;93.47;101542.66;4807571;29;20500;-79
2021/12/05 10:11:18;;;;;;;2.45;1.17;;;;;;;-3.93;91.62;101578.59;4807753;29;20381;-78
2021/12/05 10:37:15;;;;;;;1.80;1.13;;;;;;;-4.02;90.60;101615.91;4809766;29;20073;-77
2021/12/05 10:39:40;;;;;;;1.40;1.10;;;;;;;-4.01;90.65;101604.44;4805078;29;20027;-77
2021/12/05 10:42:37;;;;;;;2.00;1.08;;;;;;;-4.05;90.92;101610.81;4805406;29;20050;-77
2021/12/05 10:45:25;;;;;;;3.80;1.20;;;;;;;-4.16;90.77;101600.06;4804509;29;20030;-77
2021/12/05 10:47:52;;;;;;;2.25;1.00;;;;;;;-4.02;90.71;101618.53;4806428;29;20039;-77
2021/12/05 10:50:36;;;;;;;2.00;1.27;;;;;;;-4.01;90.43;101620.22;4808143;29;20042;-77
2021/12/05 10:53:26;;;;;;;1.58;1.17;;;;;;;-4.04;89.95;101612.50;4816393;29;20110;-77
2021/12/05 10:55:59;;;;;;;1.60;1.15;;;;;;;-4.03;90.24;101619.47;4811551;29;20039;-77
2021/12/05 10:58:33;;;;;;;2.65;1.20;;;;;;;-4.58;90.20;101554.19;4810662;29;20045;-77
2021/12/05 11:01:09;;;;;;;1.55;1.20;;;;;;;-4.19;90.13;101606.31;4813737;29;20061;-77
2021/12/05 11:03:37;;;;;;;0.93;0.80;;;;;;;-4.17;89.75;101611.47;4810140;29;20136;-77
2021/12/05 11:06:20;;;;;;;1.95;0.88;;;;;;;-4.19;90.01;101616.84;4812910;29;20027;-77
2021/12/05 11:08:45;;;;;;;1.70;1.17;;;;;;;-4.18;89.99;101596.66;4813392;29;20066;-77
2021/12/05 11:11:16;;;;;;;1.85;1.10;;;;;;;-4.19;89.99;101618.63;4814145;29;20072;-77
2021/12/05 11:13:45;;;;;;;1.58;0.95;;;;;;;-4.11;90.13;101603.28;4816944;29;20022;-77
2021/12/05 11:16:35;;;;;;;1.38;1.08;;;;;;;-4.04;89.84;101607.25;4818342;29;20057;-77
2021/12/05 11:19:07;;;;;;;1.33;0.90;;;;;;;-4.19;89.92;101611.59;4813093;29;20070;-77
2021/12/05 11:21:34;;;;;;;1.92;1.10;;;;;;;-4.08;89.71;101613.63;4824734;29;20027;-77
2021/12/05 11:24:21;;;;;;;2.03;1.15;;;;;;;-4.21;89.64;101599.47;4812566;29;20042;-77
2021/12/05 11:27:09;;;;;;;3.03;1.20;;;;;;;-4.22;89.41;101603.88;4830422;29;20030;-77
2021/12/05 11:30:03;;;;;;;1.98;1.05;;;;;;;-4.17;89.48;101611.47;4822823;29;20023;-77
2021/12/05 11:32:53;;;;;;;2.67;0.90;;;;;;;-4.52;89.48;101553.84;4816347;29;20101;-77
2021/12/05 11:35:27;;;;;;;3.58;0.98;;;;;;;-4.19;89.34;101631.78;4816038;29;20042;-77
2021/12/05 11:37:53;;;;;;;1.45;0.90;;;;;;;-4.25;89.69;101630.31;4810121;29;20050;-76
2021/12/05 11:40:18;;;;;;;2.20;0.90;;;;;;;-4.27;89.43;101625.16;4810676;29;20030;-77
2021/12/05 11:43:03;;;;;;;1.88;1.20;;;;;;;-4.32;89.39;101628.94;4811708;29;20066;-77
2021/12/05 11:45:31;;;;;;;2.67;1.00;;;;;;;-4.46;89.50;101621.81;4806372;29;20038;-77
2021/12/05 11:47:58;;;;;;;2.47;1.20;;;;;;;-4.35;89.84;101624.69;4803057;29;20176;-77
2021/12/05 11:50:37;;;;;;;1.38;0.80;;;;;;;-4.44;89.92;101613.84;4811261;29;20521;-77
2021/12/05 11:53:03;;;;;;;1.38;1.10;;;;;;;-4.46;89.80;101637.59;4811349;29;20627;-77
2021/12/05 11:55:31;;;;;;;2.40;0.95;;;;;;;-4.55;89.70;101604.75;4811744;29;20160;-77
2021/12/05 11:57:58;;;;;;;1.42;1.10;;;;;;;-4.38;89.93;101638.00;4810777;29;20092;-78
2021/12/05 12:00:27;;;;;;;1.38;1.00;;;;;;;-4.35;89.63;101634.38;4813071;29;20481;-77
2021/12/05 12:02:52;;;;;;;1.52;1.10;;;;;;;-4.47;89.86;101617.47;4809704;29;20612;-76
2021/12/05 12:05:30;;;;;;;1.70;1.20;;;;;;;-4.52;89.75;101622.16;4810928;29;20044;-77
2021/12/05 12:08:07;;;;;;;2.15;1.10;;;;;;;-4.42;89.89;101647.00;4811998;29;20090;-77
2021/12/05 12:10:40;;;;;;;2.17;1.08;;;;;;;-4.35;89.53;101629.97;4814019;29;20062;-77
2021/12/05 12:13:12;;;;;;;1.70;1.27;;;;;;;-4.36;89.64;101645.81;4809363;29;20026;-75
2021/12/05 12:15:39;;;;;;;1.48;1.05;;;;;;;-4.45;89.71;101635.78;4812538;29;20419;-77
2021/12/05 12:18:15;;;;;;;1.63;0.82;;;;;;;-4.51;90.11;101639.59;4810813;29;20058;-77
2021/12/05 12:20:45;;;;;;;3.38;1.50;;;;;;;-4.44;89.79;101654.09;4808476;29;20424;-77
2021/12/05 12:23:11;;;;;;;4.25;2.00;;;;;;;-4.45;89.72;101641.06;4810127;29;20033;-77
2021/12/05 12:25:39;;;;;;;1.77;1.08;;;;;;;-4.56;89.78;101626.72;4801700;29;20085;-76
2021/12/05 12:28:07;;;;;;;1.35;1.00;;;;;;;-4.42;89.64;101643.50;4794142;29;20035;-76
2021/12/05 12:30:37;;;;;;;2.25;1.13;;;;;;;-4.51;89.98;101648.31;4806270;29;20053;-76
2021/12/05 12:33:16;;;;;;;2.00;1.35;;;;;;;-4.56;89.93;101636.38;4807468;29;20031;-76
2021/12/05 12:35:46;;;;;;;2.03;0.93;;;;;;;-4.50;89.91;101655.28;4806034;29;20462;-76
2021/12/05 12:38:18;;;;;;;1.80;0.60;;;;;;;-4.65;89.69;101647.34;4808619;29;20046;-76
2021/12/05 12:40:52;;;;;;;1.20;0.88;;;;;;;-4.59;89.66;101661.00;4807983;29;20047;-76
2021/12/05 12:43:38;;;;;;;1.40;1.17;;;;;;;-5.05;89.73;101595.16;4808410;29;20077;-76
2021/12/05 12:46:16;;;;;;;1.58;0.90;;;;;;;-4.57;89.85;101667.03;4807939;29;20027;-76
2021/12/05 12:48:43;;;;;;;1.48;1.05;;;;;;;-4.87;89.80;101639.75;4807681;29;20030;-78
2021/12/05 12:51:25;;;;;;;1.33;0.90;;;;;;;-4.68;89.68;101650.97;4808164;29;20038;-76
2021/12/05 12:53:55;;;;;;;2.15;1.00;;;;;;;-4.70;89.73;101678.25;4806959;29;20060;-76
2021/12/05 12:56:23;;;;;;;1.40;0.98;;;;;;;-4.73;89.30;101661.75;4807295;29;20465;-79
2021/12/05 12:58:51;;;;;;;1.52;1.05;;;;;;;-4.63;89.44;101677.03;4808072;29;20058;-75
2021/12/05 13:01:31;;;;;;;1.98;1.35;;;;;;;-4.59;89.38;101689.06;4795203;29;20070;-77
2021/12/05 13:10:06;;;;;;;1.65;0.93;;;;;;;-4.72;89.78;101679.19;4795321;29;20327;-75
2021/12/05 13:12:44;;;;;;;1.38;0.82;;;;;;;-4.64;89.30;101675.31;4808643;29;20486;-76
2021/12/05 13:15:16;;;;;;;2.00;1.10;;;;;;;-4.72;89.60;101686.22;4808032;29;20031;-76
2021/12/05 13:17:46;;;;;;;2.75;1.27;;;;;;;-4.99;89.46;101628.13;4812003;29;20358;-76
2021/12/05 13:20:16;;;;;;;2.67;1.20;;;;;;;-4.71;89.77;101682.66;4807840;29;20050;-76
2021/12/05 13:23:00;;;;;;;1.70;1.08;;;;;;;-4.74;89.96;101686.28;4807595;29;20034;-77
2021/12/05 13:25:26;;;;;;;2.17;1.08;;;;;;;-4.67;89.77;101701.72;4806974;29;20038;-78
2021/12/05 13:27:52;;;;;;;1.40;1.00;;;;;;;-4.75;89.51;101696.88;4808482;29;20063;-75
2021/12/05 13:30:33;;;;;;;1.48;1.10;;;;;;;-4.68;89.27;101715.78;4808409;29;20046;-76
2021/12/05 13:33:21;;;;;;;3.17;1.40;;;;;;;-4.73;89.55;101709.00;4810253;29;20037;-76
2021/12/05 13:35:46;;;;;;;1.70;1.10;;;;;;;-4.78;89.89;101700.50;4808045;29;20043;-76
2021/12/05 13:38:42;;;;;;;1.58;1.27;;;;;;;-4.82;89.67;101712.09;4791932;29;20038;-76
2021/12/05 13:41:15;;;;;;;3.75;0.90;;;;;;;-4.78;89.73;101713.63;4806151;29;20133;-76
2021/12/05 13:43:42;;;;;;;2.28;1.40;;;;;;;-4.79;89.90;101724.22;4806699;29;20430;-75
2021/12/05 13:46:29;;;;;;;2.50;1.00;;;;;;;-4.82;90.12;101727.84;4809158;29;20037;-76
2021/12/05 13:48:54;;;;;;;2.35;1.20;;;;;;;-4.77;90.16;101727.59;4827517;29;20030;-76
2021/12/05 13:51:23;;;;;;;1.50;1.13;;;;;;;-4.88;90.10;101738.66;4814168;29;20292;-76
2021/12/05 13:53:51;;;;;;;1.70;1.27;;;;;;;-4.86;90.38;101730.72;4814938;29;20087;-77
2021/12/05 13:56:24;;;;;;;2.55;1.50;;;;;;;-4.95;90.58;101732.00;4812332;29;20034;-76
2021/12/05 13:58:53;;;;;;;1.63;1.00;;;;;;;-4.97;90.36;101725.97;4811502;29;20327;-76
2021/12/05 14:01:24;;;;;;;2.28;1.10;;;;;;;-4.97;90.26;101734.72;4811181;29;20037;-76
2021/12/05 14:04:11;;;;;;;3.00;0.93;;;;;;;-5.10;90.34;101722.25;4814358;29;20038;-76
2021/12/05 14:06:39;;;;;;;2.15;1.30;;;;;;;-5.07;90.27;101733.44;4813937;29;20031;-75
2021/12/05 14:09:21;;;;;;;2.25;1.02;;;;;;;-5.13;90.49;101725.91;4814365;29;20027;-76
2021/12/05 14:11:51;;;;;;;3.03;1.00;;;;;;;-5.12;90.34;101729.38;4821625;29;20536;-76
2021/12/05 14:14:22;;;;;;;1.60;1.25;;;;;;;-5.29;90.48;101720.56;4805151;29;20062;-76
2021/12/05 14:16:50;;;;;;;2.35;1.42;;;;;;;-5.26;90.92;101730.91;4812789;29;20022;-76
2021/12/05 14:19:19;;;;;;;1.35;1.10;;;;;;;-5.21;91.05;101744.63;4811420;29;20021;-76
2021/12/05 14:21:50;;;;;;;2.25;1.10;;;;;;;-5.24;90.79;101760.50;4806709;29;20521;-76
2021/12/05 14:24:20;;;;;;;2.60;1.20;;;;;;;-5.22;90.75;101763.09;4807217;29;20035;-76
2021/12/05 14:26:51;;;;;;;1.80;1.10;;;;;;;-5.24;90.88;101771.00;4810716;29;20047;-76
2021/12/05 14:29:20;;;;;;;2.13;1.10;;;;;;;-5.34;90.86;101759.25;4811960;29;20030;-76
2021/12/05 14:32:06;;;;;;;3.65;1.40;;;;;;;-5.37;91.09;101748.91;4809127;29;20038;-76
2021/12/05 14:34:34;;;;;;;2.20;1.27;;;;;;;-5.34;91.07;101758.41;4805777;29;20538;-76
2021/12/05 14:37:11;;;;;;;1.60;1.10;;;;;;;-5.56;91.11;101745.47;4812127;29;20054;-76
2021/12/05 14:39:40;;;;;;;1.58;1.20;;;;;;;-5.45;91.18;101777.28;4807787;29;20031;-75
2021/12/05 14:42:17;;;;;;;1.27;0.95;;;;;;;-5.52;91.09;101762.78;4808133;29;20478;-75
2021/12/05 14:44:46;;;;;;;9.23;5.22;;;;;;;-5.48;91.02;101773.03;4806228;29;20058;-76
2021/12/05 14:47:14;;;;;;;3.53;1.30;;;;;;;-5.48;91.30;101783.53;4810123;29;20039;-75
2021/12/05 14:49:52;;;;;;;1.30;1.10;;;;;;;-5.47;91.10;101792.25;4809437;29;20476;-77
2021/12/05 14:52:21;;;;;;;2.22;1.10;;;;;;;-5.54;91.27;101782.97;4803376;29;20078;-76
2021/12/05 14:54:47;;;;;;;1.35;0.98;;;;;;;-5.65;91.50;101774.75;4807368;29;20038;-76
2021/12/05 14:57:22;;;;;;;2.80;1.17;;;;;;;-5.57;91.61;101786.56;4804320;29;20028;-76
2021/12/05 14:59:51;;;;;;;5.45;1.35;;;;;;;-5.76;91.56;101756.88;4804716;29;20116;-76
2021/12/05 15:02:20;;;;;;;2.28;1.38;;;;;;;-5.56;91.44;101783.03;4808517;29;20087;-77
2021/12/05 15:04:50;;;;;;;1.42;1.10;;;;;;;-5.59;91.75;101784.97;4807249;29;20462;-76
2021/12/05 15:07:25;;;;;;;2.15;1.33;;;;;;;-5.57;91.55;101783.09;4807176;29;20038;-77
2021/12/05 15:09:56;;;;;;;2.42;1.20;;;;;;;-5.59;91.47;101800.69;4804271;29;20095;-77
2021/12/05 15:12:33;;;;;;;3.20;1.40;;;;;;;-5.61;91.34;101786.78;4792017;29;20056;-77
2021/12/05 15:15:07;;;;;;;3.05;1.10;;;;;;;-5.66;92.09;101789.63;4787732;29;20047;-77
2021/12/05 15:17:35;;;;;;;1.55;1.05;;;;;;;-5.63;92.01;101802.56;4796479;29;20039;-77
2021/12/05 15:20:15;;;;;;;3.78;1.10;;;;;;;-5.64;91.74;101800.88;4813963;29;20059;-75
2021/12/05 15:22:43;;;;;;;1.92;0.90;;;;;;;-5.76;92.42;101783.97;4801465;29;20045;-77
2021/12/05 15:25:12;;;;;;;2.15;0.90;;;;;;;-5.75;91.95;101795.28;4807856;29;20030;-76
2021/12/05 15:27:38;;;;;;;1.30;0.90;;;;;;;-5.66;91.98;101797.50;4807537;29;20473;-75
2021/12/05 15:30:23;;;;;;;2.00;0.90;;;;;;;-5.86;91.99;101782.69;4807655;29;20027;-75
2021/12/05 15:33:00;;;;;;;2.25;0.90;;;;;;;-5.65;92.02;101812.31;4817885;29;20031;-76
2021/12/05 15:35:27;;;;;;;1.42;1.02;;;;;;;-5.73;92.13;101803.91;4834019;29;20061;-75
2021/12/05 15:37:59;;;;;;;3.08;1.30;;;;;;;-5.69;91.96;101819.47;4810853;29;20560;-75
2021/12/05 15:40:27;;;;;;;1.45;1.08;;;;;;;-5.83;91.87;101793.00;4810802;29;20034;-81
2021/12/05 15:43:08;;;;;;;2.42;1.35;;;;;;;-5.72;91.68;101824.84;4812802;29;20045;-77
2021/12/05 15:45:36;;;;;;;1.10;0.65;;;;;;;-5.75;92.05;101819.75;4824632;29;20471;-76
2021/12/05 15:48:01;;;;;;;1.40;0.90;;;;;;;-5.81;91.95;101822.63;4792967;29;20137;-76
2021/12/05 15:50:31;;;;;;;2.10;0.93;;;;;;;-5.81;91.96;101812.16;4808187;29;20035;-76
2021/12/05 15:53:04;;;;;;;2.47;1.20;;;;;;;-5.79;91.89;101825.19;4805504;29;20030;-77
2021/12/05 15:55:40;;;;;;;1.10;0.80;;;;;;;-5.73;91.98;101831.00;4791538;29;20035;-76
2021/12/05 15:58:10;;;;;;;2.33;1.33;;;;;;;-5.72;91.80;101827.47;4789696;29;20061;-76
2021/12/05 16:00:40;;;;;;;3.00;1.10;;;;;;;-5.85;91.64;101821.06;4808658;29;20179;-76
2021/12/05 16:03:09;;;;;;;2.38;1.30;;;;;;;-5.76;91.90;101836.41;4804046;29;20069;-76
2021/12/05 16:05:37;;;;;;;1.80;0.80;;;;;;;-5.82;92.04;101826.19;4808539;29;20071;-76
2021/12/05 16:08:09;;;;;;;1.90;1.05;;;;;;;-5.88;92.03;101830.84;4809402;29;20043;-77
2021/12/05 16:10:37;;;;;;;1.98;1.10;;;;;;;-5.77;91.85;101837.28;4804163;29;20485;-77
2021/12/05 16:13:12;;;;;;;2.08;1.20;;;;;;;-5.90;91.41;101816.00;4807505;29;20031;-76
2021/12/05 16:15:39;;;;;;;1.13;1.00;;;;;;;-5.77;91.66;101834.66;4822176;29;20042;-77
2021/12/05 16:18:05;;;;;;;1.48;0.88;;;;;;;-5.82;91.21;101831.41;4807003;29;20470;-77
2021/12/05 16:20:35;;;;;;;1.75;1.10;;;;;;;-5.90;91.38;101804.69;4806433;29;20034;-77
2021/12/05 16:23:12;;;;;;;1.65;0.80;;;;;;;-5.96;91.12;101807.59;4807673;29;20470;-77
2021/12/05 16:25:48;;;;;;;1.65;0.93;;;;;;;-5.85;91.05;101820.22;4798856;29;20372;-77
2021/12/05 16:28:21;;;;;;;2.08;0.77;;;;;;;-5.87;91.16;101817.66;4801469;29;20470;-76
2021/12/05 16:30:48;;;;;;;1.27;1.00;;;;;;;-5.86;90.84;101842.97;4809240;29;20027;-77
2021/12/05 16:33:16;;;;;;;1.23;0.73;;;;;;;-5.77;91.23;101839.06;4809725;29;20031;-76
2021/12/05 16:35:51;;;;;;;1.63;1.10;;;;;;;-5.80;90.69;101844.44;4814601;29;20505;-77
2021/12/05 16:38:28;;;;;;;1.30;0.90;;;;;;;-5.85;90.84;101842.03;4808855;29;20065;-77
2021/12/05 16:41:11;;;;;;;1.20;0.82;;;;;;;-5.80;90.58;101861.00;4811686;29;20042;-77
2021/12/05 16:43:45;;;;;;;2.35;1.30;;;;;;;-5.76;90.71;101862.59;4816121;29;20058;-77
2021/12/05 16:46:20;;;;;;;1.65;0.85;;;;;;;-5.76;90.63;101856.50;4812362;29;20118;-77
2021/12/05 16:48:46;;;;;;;1.40;0.90;;;;;;;-5.86;90.47;101839.47;4816429;29;20077;-77
2021/12/05 16:51:14;;;;;;;1.70;1.20;;;;;;;-5.71;90.63;101857.16;4817035;29;20042;-77
2021/12/05 16:53:45;;;;;;;2.28;1.10;;;;;;;-5.72;90.40;101860.69;4831549;29;20027;-77
2021/12/05 16:56:14;;;;;;;1.42;0.88;;;;;;;-5.72;90.71;101858.91;4820370;29;20480;-77
2021/12/05 16:58:42;;;;;;;1.13;0.93;;;;;;;-5.72;90.67;101863.31;4791973;29;20454;-77
2021/12/05 17:01:15;;;;;;;2.20;1.20;;;;;;;-5.77;90.73;101857.41;4811739;29;20073;-77
2021/12/05 17:03:43;;;;;;;2.08;1.30;;;;;;;-5.75;90.87;101860.84;4805018;29;20031;-77
2021/12/05 17:06:11;;;;;;;1.83;1.02;;;;;;;-5.78;90.64;101867.06;4821621;29;20470;-77
2021/12/05 17:08:44;;;;;;;2.25;1.02;;;;;;;-5.77;91.05;101860.88;4807408;29;20041;-77
2021/12/05 17:11:13;;;;;;;2.17;1.10;;;;;;;-5.78;91.25;101877.53;4806160;29;20076;-76